Colfax, New Mexico
Current Conditions -  °F | °C
As of 5:53 PM on Saturday 25 Oct 2014 (Local Time) from KRTN Reporting Station
Clear Clear  
Wind Chill: 72°   Ceiling: Unl
Heat Index: 72°   Visibility: 10mi
Dew Point: 24°   Wind: 13mph
Humidity: 17%   Direction: 170°S
Pressure: 30.13"   Gusts: NA
Location:  36.7885°N, 104.452°W
Report Text: KRTN 252353Z AUTO 17011KT 10SM CLR 22/M04 A3013 RMK AO2 SLP141 T02221044 10283 20222 57012
Loading
Personal Weather Stations






























Interactive Weather Map
Tropical Storm Tracking
New forecast layout! Learn more

10-Day Weather Forecast

Advertisements
Track Severe Weather on mobile